createdAt,value
2023-01-28T00:01:31.890Z,98027.06
2023-01-28T00:05:35.067Z,98020.97
2023-01-28T00:09:39.648Z,98023.56
2023-01-28T00:13:44.212Z,98027.97
2023-01-28T00:17:47.399Z,98032.00
2023-01-28T00:21:50.270Z,98026.03
2023-01-28T00:25:54.742Z,98031.16
2023-01-28T00:29:59.021Z,98032.84
2023-01-28T00:34:02.736Z,98042.28
2023-01-28T00:38:06.016Z,98034.66
2023-01-28T00:42:09.171Z,98034.75
2023-01-28T00:46:14.044Z,98015.91
2023-01-28T00:50:17.951Z,98037.31
2023-01-28T00:54:20.939Z,98033.13
2023-01-28T00:58:25.877Z,98037.41
2023-01-28T01:02:30.601Z,98038.34
2023-01-28T01:06:36.120Z,98046.16
2023-01-28T01:10:40.227Z,98043.59
2023-01-28T01:14:43.097Z,98046.16
2023-01-28T01:18:49.805Z,98046.16
2023-01-28T01:22:53.285Z,98046.16
2023-01-28T01:26:56.671Z,98051.28
2023-01-28T01:31:04.088Z,98054.56
2023-01-28T01:35:11.738Z,98048.63
2023-01-28T01:39:14.660Z,98043.59
2023-01-28T01:43:18.485Z,98054.78
2023-01-28T01:47:25.791Z,98054.78
2023-01-28T01:51:34.061Z,98053.94
2023-01-28T01:55:40.846Z,98052.22
2023-01-28T01:59:46.154Z,98057.34
2023-01-28T02:03:56.648Z,98063.31
2023-01-28T02:08:21.288Z,98069.38
2023-01-28T02:12:28.419Z,98065.06
2023-01-28T02:16:32.379Z,98070.38
2023-01-28T02:20:50.390Z,98064.31
2023-01-28T02:25:34.811Z,98064.31
2023-01-28T02:29:45.634Z,98062.59
2023-01-28T02:33:55.839Z,98055.78
2023-01-28T02:38:05.780Z,98062.59
2023-01-28T02:42:13.817Z,98053.13
2023-01-28T02:47:04.118Z,98053.13
2023-01-28T02:51:17.355Z,98059.09
2023-01-28T02:55:27.918Z,98060.81
2023-01-28T02:59:42.223Z,98063.41
2023-01-28T03:03:54.501Z,98071.84
2023-01-28T03:07:59.533Z,98069.28
2023-01-28T03:12:23.930Z,98071.84
2023-01-28T03:16:44.809Z,98073.47
2023-01-28T03:21:13.189Z,98075.13
2023-01-28T03:25:39.274Z,98080.25
2023-01-28T03:30:03.720Z,98081.09
2023-01-28T03:34:24.810Z,98080.25
2023-01-28T03:38:42.780Z,98087.06
2023-01-28T03:42:47.259Z,98082.63
2023-01-28T03:46:50.569Z,98082.63
2023-01-28T03:50:57.457Z,98086.88
2023-01-28T03:55:01.214Z,98092.00
2023-01-28T03:59:05.901Z,98086.78
2023-01-28T04:03:16.085Z,98090.16
2023-01-28T04:07:19.434Z,98101.16
2023-01-28T04:11:25.549Z,98092.63
2023-01-28T04:15:31.146Z,98093.47
2023-01-28T04:19:37.657Z,98096.97
2023-01-28T04:23:40.741Z,98103.00
2023-01-28T04:27:43.926Z,98098.69
2023-01-28T04:31:48.315Z,98113.19
2023-01-28T04:35:51.632Z,98110.72
2023-01-28T04:39:54.607Z,98115.84
2023-01-28T04:43:57.785Z,98117.72
2023-01-28T04:48:02.596Z,98115.13
2023-01-28T04:52:08.237Z,98120.38
2023-01-28T04:56:11.291Z,98130.72
2023-01-28T05:00:15.341Z,98131.63
2023-01-28T05:04:20.041Z,98134.94
2023-01-28T05:08:23.411Z,98135.03
2023-01-28T05:12:26.763Z,98142.75
2023-01-28T05:16:29.803Z,98147.78
2023-01-28T05:20:34.380Z,98152.00
2023-01-28T05:24:37.251Z,98150.34
2023-01-28T05:28:40.510Z,98166.69
2023-01-28T05:32:43.551Z,98169.28
2023-01-28T05:36:50.949Z,98170.91
2023-01-28T05:40:53.895Z,98180.44
2023-01-28T05:44:57.261Z,98178.81
2023-01-28T05:49:00.297Z,98175.31
2023-01-28T05:53:06.972Z,98175.31
2023-01-28T05:57:09.980Z,98175.53
2023-01-28T06:01:13.582Z,98181.56
2023-01-28T06:05:16.876Z,98183.31
2023-01-28T06:09:21.389Z,98186.88
2023-01-28T06:13:24.634Z,98182.75
2023-01-28T06:17:27.816Z,98188.91
2023-01-28T06:21:30.758Z,98200.13
2023-01-28T06:25:35.442Z,98200.28
2023-01-28T06:29:38.348Z,98213.31
2023-01-28T06:33:41.249Z,98216.06
2023-01-28T06:37:47.097Z,98220.63
2023-01-28T06:41:51.700Z,98221.56
2023-01-28T06:45:55.274Z,98225.94
2023-01-28T06:49:58.167Z,98229.44
2023-01-28T06:54:01.402Z,98226.97
2023-01-28T06:58:05.908Z,98230.38
2023-01-28T07:02:11.172Z,98225.31
2023-01-28T07:06:14.706Z,98230.47
2023-01-28T07:10:18.465Z,98228.06
2023-01-28T07:14:23.040Z,98241.34
2023-01-28T07:18:26.657Z,98244.66
2023-01-28T07:22:29.792Z,98241.84
2023-01-28T07:26:33.006Z,98246.63
2023-01-28T07:30:37.556Z,98245.41
2023-01-28T07:34:43.083Z,98246.88
2023-01-28T07:38:46.217Z,98245.06
2023-01-28T07:42:49.662Z,98256.97
2023-01-28T07:46:54.016Z,98237.91
2023-01-28T07:51:00.472Z,98255.34
2023-01-28T07:55:03.375Z,98263.94
2023-01-28T07:59:06.335Z,98266.59
2023-01-28T08:03:15.911Z,98272.56
2023-01-28T08:07:19.186Z,98270.09
2023-01-28T08:11:23.317Z,98279.34
2023-01-28T08:15:27.229Z,98287.81
2023-01-28T08:19:31.508Z,98288.44
2023-01-28T08:23:35.353Z,98289.25
2023-01-28T08:27:38.355Z,98298.34
2023-01-28T08:31:41.578Z,98288.72
2023-01-28T08:35:46.385Z,98291.84
2023-01-28T08:39:49.897Z,98287.34
2023-01-28T08:43:52.774Z,98289.56
2023-01-28T08:47:57.673Z,98292.56
2023-01-28T08:52:01.948Z,98286.97
2023-01-28T08:56:05.619Z,98293.47
2023-01-28T09:00:13.277Z,98297.31
2023-01-28T09:04:16.742Z,98297.78
2023-01-28T09:08:21.853Z,98297.47
2023-01-28T09:12:25.622Z,98305.00
2023-01-28T09:16:29.050Z,98297.94
2023-01-28T09:20:32.354Z,98308.03
2023-01-28T09:24:38.918Z,98308.75
2023-01-28T09:28:42.080Z,98320.81
2023-01-28T09:32:45.330Z,98322.47
2023-01-28T09:36:48.311Z,98319.88
2023-01-28T09:40:53.074Z,98323.47
2023-01-28T09:45:07.401Z,98321.75
2023-01-28T09:49:20.379Z,98324.31
2023-01-28T09:53:26.525Z,98327.78
2023-01-28T09:57:38.495Z,98308.88
2023-01-28T10:01:48.565Z,98315.47
2023-01-28T10:06:03.794Z,98320.53
2023-01-28T10:10:15.317Z,98316.94
2023-01-28T10:14:32.270Z,98314.97
2023-01-28T10:18:39.057Z,98306.28
2023-01-28T10:22:47.412Z,98306.88
2023-01-28T10:26:50.481Z,98301.13
2023-01-28T10:30:54.920Z,98309.38
2023-01-28T10:35:00.133Z,98308.47
2023-01-28T10:39:03.162Z,98300.53
2023-01-28T10:43:06.413Z,98307.34
2023-01-28T10:47:15.837Z,98308.81
2023-01-28T10:51:20.232Z,98299.53
2023-01-28T10:55:25.670Z,98306.97
2023-01-28T10:59:30.539Z,98305.19
2023-01-28T11:03:36.250Z,98304.28
2023-01-28T11:07:39.145Z,98311.28
2023-01-28T11:11:42.192Z,98302.63
2023-01-28T11:15:49.690Z,98299.25
2023-01-28T11:19:55.040Z,98301.69
2023-01-28T11:24:01.277Z,98303.47
2023-01-28T11:28:09.340Z,98301.59
2023-01-28T11:32:20.384Z,98302.44
2023-01-28T11:36:26.590Z,98304.41
2023-01-28T11:40:30.761Z,98297.06
2023-01-28T11:44:33.765Z,98300.34
2023-01-28T11:48:46.578Z,98285.50
2023-01-28T11:53:10.394Z,98299.53
2023-01-28T11:57:24.124Z,98296.22
2023-01-28T12:01:36.970Z,98299.44
2023-01-28T12:05:48.718Z,98309.81
2023-01-28T12:09:57.905Z,98298.06
2023-01-28T12:14:13.066Z,98306.31
2023-01-28T12:18:31.349Z,98300.34
2023-01-28T12:22:58.437Z,98300.53
2023-01-28T12:27:13.050Z,98304.03
2023-01-28T12:31:34.459Z,98307.34
2023-01-28T12:35:51.310Z,98298.88
2023-01-28T12:40:07.807Z,98306.69
2023-01-28T12:44:15.813Z,98300.75
2023-01-28T12:48:24.326Z,98304.31
2023-01-28T12:52:34.449Z,98297.44
2023-01-28T12:56:43.493Z,98305.16
2023-01-28T13:00:52.544Z,98308.47
2023-01-28T13:05:05.358Z,98318.03
2023-01-28T13:09:18.174Z,98307.81
2023-01-28T13:13:29.117Z,98318.22
2023-01-28T13:17:35.133Z,98321.72
2023-01-28T13:21:47.750Z,98316.66
2023-01-28T13:25:53.429Z,98323.53
2023-01-28T13:30:06.911Z,98319.94
2023-01-28T13:34:29.358Z,98319.84
2023-01-28T13:38:34.217Z,98325.75
2023-01-28T13:42:38.473Z,98329.16
2023-01-28T13:46:41.538Z,98330.78
2023-01-28T13:50:47.151Z,98329.75
2023-01-28T13:54:56.636Z,98333.97
2023-01-28T13:59:25.990Z,98339.88
2023-01-28T14:04:10.537Z,98338.94
2023-01-28T14:08:48.587Z,98337.28
2023-01-28T14:13:06.967Z,98350.16
2023-01-28T14:17:18.088Z,98343.38
2023-01-28T14:21:22.346Z,98351.09
2023-01-28T14:25:37.371Z,98355.31
2023-01-28T14:29:50.518Z,98357.97
2023-01-28T14:33:53.987Z,98369.19
2023-01-28T14:37:57.597Z,98364.13
2023-01-28T14:42:04.696Z,98364.31
2023-01-28T14:46:21.247Z,98373.78
2023-01-28T14:50:36.160Z,98368.00
2023-01-28T14:55:00.635Z,98376.63
2023-01-28T14:59:16.880Z,98375.00
2023-01-28T15:03:25.349Z,98376.00
2023-01-28T15:07:29.418Z,98382.00
2023-01-28T15:11:32.685Z,98389.50
2023-01-28T15:15:39.304Z,98393.84
2023-01-28T15:19:42.499Z,98397.13
2023-01-28T15:23:45.604Z,98399.69
2023-01-28T15:27:49.599Z,98406.50
2023-01-28T15:31:54.634Z,98403.84
2023-01-28T15:35:59.988Z,98406.50
2023-01-28T15:40:06.232Z,98405.69
2023-01-28T15:44:19.393Z,98413.31
2023-01-28T15:48:26.897Z,98415.03
2023-01-28T15:52:37.514Z,98416.97
2023-01-28T15:56:40.558Z,98421.47
2023-01-28T16:00:43.748Z,98421.66
2023-01-28T16:04:59.568Z,98427.81
2023-01-28T16:09:05.226Z,98425.44
2023-01-28T16:13:15.712Z,98428.94
2023-01-28T16:17:21.164Z,98432.53
2023-01-28T16:21:27.962Z,98429.94
2023-01-28T16:25:33.651Z,98442.91
2023-01-28T16:29:37.563Z,98436.91
2023-01-28T16:33:40.916Z,98441.22
2023-01-28T16:37:46.288Z,98443.88
2023-01-28T16:41:49.994Z,98448.31
2023-01-28T16:45:53.029Z,98462.06
2023-01-28T16:49:56.416Z,98468.88
2023-01-28T16:54:01.067Z,98464.63
2023-01-28T16:58:04.324Z,98468.88
2023-01-28T17:02:07.719Z,98468.88
2023-01-28T17:06:16.377Z,98467.03
2023-01-28T17:10:21.194Z,98472.00
2023-01-28T17:14:24.350Z,98477.97
2023-01-28T17:18:27.609Z,98475.31
2023-01-28T17:22:30.520Z,98486.22
2023-01-28T17:26:35.635Z,98485.25
2023-01-28T17:30:41.579Z,98484.31
2023-01-28T17:34:44.614Z,98490.22
2023-01-28T17:38:49.387Z,98496.16
2023-01-28T17:42:53.707Z,98496.16
2023-01-28T17:46:56.957Z,98506.44
2023-01-28T17:51:00.001Z,98509.13
2023-01-28T17:55:03.231Z,98511.69
2023-01-28T17:59:07.972Z,98513.44
2023-01-28T18:03:13.663Z,98521.09
2023-01-28T18:07:16.617Z,98528.03
2023-01-28T18:11:21.604Z,98524.63
2023-01-28T18:15:26.485Z,98525.56
2023-01-28T18:19:30.135Z,98537.59
2023-01-28T18:23:33.578Z,98535.94
2023-01-28T18:27:37.154Z,98533.38
2023-01-28T18:31:41.540Z,98538.44
2023-01-28T18:35:45.255Z,98543.56
2023-01-28T18:39:48.256Z,98543.47
2023-01-28T18:43:51.740Z,98549.47
2023-01-28T18:47:56.106Z,98542.47
2023-01-28T18:51:59.598Z,98544.16
2023-01-28T18:56:04.252Z,98541.66
2023-01-28T19:00:50.555Z,98538.16
2023-01-28T19:04:58.020Z,98544.94
2023-01-28T19:09:03.629Z,98544.94
2023-01-28T19:13:07.143Z,98550.94
2023-01-28T19:17:10.318Z,98545.78
2023-01-28T19:21:15.350Z,98544.94
2023-01-28T19:25:19.074Z,98554.44
2023-01-28T19:29:21.974Z,98551.03
2023-01-28T19:33:25.350Z,98556.16
2023-01-28T19:37:30.049Z,98560.56
2023-01-28T19:41:33.295Z,98559.75
2023-01-28T19:45:36.499Z,98567.47
2023-01-28T19:49:39.394Z,98576.00
2023-01-28T19:53:46.013Z,98571.88
2023-01-28T19:57:50.312Z,98576.00
2023-01-28T20:01:53.423Z,98585.38
2023-01-28T20:06:01.227Z,98575.81
2023-01-28T20:10:10.161Z,98583.44
2023-01-28T20:14:16.452Z,98580.78
2023-01-28T20:18:19.494Z,98577.22
2023-01-28T20:22:22.863Z,98584.84
2023-01-28T20:26:31.765Z,98587.22
2023-01-28T20:30:35.293Z,98584.56
2023-01-28T20:34:38.529Z,98580.19
2023-01-28T20:38:43.570Z,98589.53
2023-01-28T20:42:48.100Z,98577.03
2023-01-28T20:46:51.373Z,98587.91
2023-01-28T20:50:54.384Z,98591.38
2023-01-28T20:54:57.939Z,98602.41
2023-01-28T20:59:05.360Z,98598.09
2023-01-28T21:03:10.094Z,98598.09
2023-01-28T21:07:13.444Z,98598.38
2023-01-28T21:11:16.914Z,98609.13
2023-01-28T21:15:21.681Z,98599.66
2023-01-28T21:19:25.143Z,98608.31
2023-01-28T21:23:28.387Z,98615.00
2023-01-28T21:27:33.178Z,98608.03
2023-01-28T21:31:37.793Z,98613.81
2023-01-28T21:35:42.622Z,98615.38
2023-01-28T21:39:45.513Z,98619.47
2023-01-28T21:43:50.507Z,98618.34
2023-01-28T21:47:56.357Z,98620.84
2023-01-28T21:51:59.295Z,98630.13
2023-01-28T21:56:02.517Z,98633.44
2023-01-28T22:00:06.494Z,98633.31
2023-01-28T22:04:11.036Z,98638.38
2023-01-28T22:08:13.916Z,98629.84
2023-01-28T22:12:17.356Z,98633.25
2023-01-28T22:16:20.657Z,98636.75
2023-01-28T22:20:27.093Z,98635.09
2023-01-28T22:24:30.880Z,98644.63
2023-01-28T22:28:34.192Z,98632.78
2023-01-28T22:32:37.593Z,98626.25
2023-01-28T22:36:42.137Z,98633.13
2023-01-28T22:40:45.579Z,98629.00
2023-01-28T22:44:48.476Z,98628.25
2023-01-28T22:48:52.341Z,98627.53
2023-01-28T22:52:56.938Z,98631.94
2023-01-28T22:57:00.345Z,98631.22
2023-01-28T23:01:03.545Z,98632.19
2023-01-28T23:05:07.975Z,98622.91
2023-01-28T23:09:12.507Z,98621.44
2023-01-28T23:13:16.306Z,98624.19
2023-01-28T23:17:37.391Z,98611.84
2023-01-28T23:21:57.174Z,98621.03
2023-01-28T23:26:06.930Z,98622.78
2023-01-28T23:30:12.333Z,98626.38
2023-01-28T23:34:16.663Z,98634.81
2023-01-28T23:38:19.715Z,98639.13
2023-01-28T23:42:26.544Z,98631.41
2023-01-28T23:46:39.067Z,98630.59
2023-01-28T23:50:43.191Z,98622.88
2023-01-28T23:54:46.089Z,98625.44
2023-01-28T23:58:51.223Z,98627.09
